Bei Facebook empfehlenBei Twitter postenGoogle plusPinterest

Das Wetter im Erzgebirge am 29.10.2015

Wetter und Klima am 29.10.2015 Holzhau im Erzgebirge (630m ü.NN)
Letzte gemessene Temperatur und Uhrzeit der Messung23:59:00 Uhr6.50 °C
Temperatur (Maximum / Höchstwert) und Uhrzeit der Messung13:29:00 Uhr11.90 °C
Temperatur (Minimum / Tiefstwert) und Uhrzeit der Messung06:44:003.60 °C
Errechneter Absolutwert der Temperaturschwankungen zwischen Tmin und Tmax des Tages8.30 K
Errechnete Tagesmitteltemperatur6.90833 °C
Gesamt - Niederschlag des Tages (in flüssiger Form)0.00 Liter / m²
Luftdruck (Maximum / Höchstwert) und Zeitpunkt der Messung23:59:00 Uhr1020.30 hPa
Luftdruck (Minimum / Tiefstwert) und Zeitpunkt der Messung02:44:00 Uhr1010.30 hPa
Errechneter Absolutwert der Luftdruckschwankungen des Tages10.00 hPa
Höchste gemessene Windgeschwindigkeit und Uhrzeit der Messung10:44:00 Uhr9.72 km/h
Errechnete Windhäufigkeit in Relation zu den Messwerten des Tages13.54167 %
Niedrigste Windkühle (Windchill) und Zeitpunkt der Messung06:44:00 Uhr3.60 °C
Taupunkt (Maximum / Höchstwert) und Uhrzeit der Messung12:29:00 Uhr9.70 °C
Taupunkt (Minimum / Tiefstwert) und Uhrzeit der Messung06:44:002.70 °C
Anzahl der automatisch eingelesenen Messwerte 96

Detaillierte Wetter- und Klima- Messwerte für den 29.10.2015 in Holzhau im Erzgebirge (630m ü.NN)
ZeitTemperaturLuftdruckRel. LuftfeuchteWindWindrichtungWindchillTaupunktNiederschlag l/m²
23:59:006.50 °C1020.30 hPa92.00 %5.30 °C 
23:44:006.50 °C1020.20 hPa92.00 %5.30 °C 
23:29:006.50 °C1020.10 hPa92.00 %5.30 °C 
23:14:006.60 °C1020.30 hPa92.00 %5.40 °C 
22:59:006.60 °C1020.20 hPa92.00 %5.40 °C 
22:44:006.60 °C1020.20 hPa92.00 %5.40 °C 
22:29:006.60 °C1020.20 hPa92.00 %5.40 °C 
22:14:006.60 °C1020.10 hPa92.00 %5.40 °C 
21:59:006.60 °C1019.90 hPa92.00 %5.40 °C 
21:44:006.60 °C1019.70 hPa92.00 %5.40 °C 
21:29:006.60 °C1019.50 hPa92.00 %5.40 °C 
21:14:006.60 °C1019.50 hPa92.00 %5.40 °C 
20:59:006.60 °C1019.20 hPa92.00 %5.40 °C 
20:44:006.50 °C1019.10 hPa92.00 %5.30 °C 
20:29:006.50 °C1018.80 hPa92.00 %5.30 °C 
20:14:006.50 °C1018.50 hPa92.00 %5.30 °C 
19:59:006.60 °C1018.40 hPa92.00 %5.40 °C 
19:44:006.60 °C1018.60 hPa92.00 %5.40 °C 
19:29:006.60 °C1018.40 hPa91.00 %5.20 °C 
19:14:006.60 °C1018.40 hPa91.00 %5.20 °C 
18:59:006.50 °C1018.40 hPa91.00 %5.10 °C 
18:44:006.50 °C1018.40 hPa91.00 %1.44 km/hW6.50 °C5.10 °C 
18:29:006.50 °C1018.20 hPa91.00 %5.10 °C 
18:14:006.50 °C1018.00 hPa90.00 %5.04 km/hW5.80 °C5.00 °C 
17:59:006.50 °C1017.90 hPa90.00 %5.00 °C 
17:44:006.60 °C1017.80 hPa90.00 %5.10 °C 
17:29:006.60 °C1017.50 hPa90.00 %5.10 °C 
17:14:006.60 °C1017.30 hPa89.00 %4.90 °C 
16:59:006.70 °C1017.00 hPa89.00 %5.00 °C 
16:44:006.90 °C1016.90 hPa88.00 %5.10 °C 
16:29:006.90 °C1016.80 hPa88.00 %5.10 °C 
16:14:007.20 °C1016.60 hPa87.00 %5.20 °C 
15:59:007.70 °C1016.40 hPa87.00 %5.70 °C 
15:44:008.10 °C1016.20 hPa86.00 %1.80 km/hNW8.10 °C5.90 °C 
15:29:008.60 °C1016.00 hPa85.00 %6.20 °C 
15:14:008.90 °C1015.90 hPa84.00 %6.30 °C 
14:59:009.40 °C1015.80 hPa84.00 %6.80 °C 
14:44:009.80 °C1015.80 hPa83.00 %7.10 °C 
14:29:0010.30 °C1015.80 hPa83.00 %4.68 km/hWSW10.30 °C7.50 °C 
14:14:0010.70 °C1015.70 hPa82.00 %7.80 °C 
13:59:0011.00 °C1015.40 hPa81.00 %1.80 km/hWNW11.00 °C7.90 °C 
13:44:0011.50 °C1015.20 hPa81.00 %8.40 °C 
13:29:0011.90 °C1015.20 hPa82.00 %8.90 °C 
13:14:0011.80 °C1015.10 hPa83.00 %5.40 km/hW11.70 °C9.00 °C 
12:59:0011.80 °C1014.90 hPa83.00 %9.00 °C 
12:44:0011.90 °C1014.80 hPa85.00 %9.50 °C 
12:29:0011.80 °C1014.70 hPa87.00 %9.70 °C 
12:14:0011.30 °C1014.60 hPa88.00 %9.40 °C 
11:59:0010.90 °C1014.20 hPa89.00 %9.20 °C 
11:44:0010.40 °C1014.00 hPa90.00 %8.80 °C 
11:29:0010.40 °C1013.90 hPa90.00 %8.80 °C 
11:14:0010.20 °C1013.80 hPa91.00 %8.80 °C 
10:59:009.90 °C1013.70 hPa92.00 %6.84 km/hS9.10 °C8.70 °C 
10:44:009.50 °C1013.40 hPa93.00 %9.72 km/hSW8.10 °C8.40 °C 
10:29:009.00 °C1013.30 hPa94.00 %8.10 °C 
10:14:008.90 °C1013.00 hPa94.00 %3.24 km/hSSW8.90 °C8.00 °C 
09:59:008.60 °C1012.90 hPa95.00 %7.80 °C 
09:44:008.30 °C1012.90 hPa95.00 %7.50 °C 
09:29:007.50 °C1012.90 hPa95.00 %1.80 km/hSSO7.50 °C6.80 °C 
09:14:006.90 °C1012.40 hPa95.00 %6.20 °C 
08:59:006.40 °C1012.50 hPa95.00 %5.70 °C 
08:44:005.80 °C1012.40 hPa95.00 %5.10 °C 
08:29:005.30 °C1012.30 hPa95.00 %4.60 °C 
08:14:004.90 °C1012.20 hPa94.00 %4.00 °C 
07:59:004.50 °C1011.90 hPa94.00 %3.60 °C 
07:44:004.00 °C1011.80 hPa94.00 %3.60 km/hONO4.00 °C3.10 °C 
07:29:003.80 °C1011.70 hPa94.00 %2.90 °C 
07:14:003.80 °C1011.40 hPa94.00 %2.90 °C 
06:59:003.80 °C1011.20 hPa94.00 %2.90 °C 
06:44:003.60 °C1011.10 hPa94.00 %2.70 °C 
06:29:003.60 °C1010.80 hPa94.00 %2.70 °C 
06:14:003.90 °C1010.70 hPa94.00 %3.00 °C 
05:59:003.90 °C1010.70 hPa93.00 %2.90 °C 
05:44:004.00 °C1010.70 hPa94.00 %3.10 °C 
05:29:004.20 °C1010.70 hPa94.00 %3.30 °C 
05:14:004.30 °C1010.50 hPa94.00 %3.40 °C 
04:59:004.40 °C1010.40 hPa94.00 %3.50 °C 
04:44:004.50 °C1010.50 hPa94.00 %3.60 °C 
04:29:004.50 °C1010.70 hPa94.00 %3.60 °C 
04:14:004.60 °C1010.40 hPa93.00 %3.60 °C 
03:59:004.90 °C1010.40 hPa93.00 %3.90 °C 
03:44:005.10 °C1010.50 hPa94.00 %4.20 °C 
03:29:005.30 °C1010.50 hPa93.00 %4.30 °C 
03:14:005.30 °C1010.40 hPa93.00 %2.88 km/hOSO5.30 °C4.30 °C 
02:59:005.40 °C1010.40 hPa93.00 %4.40 °C 
02:44:005.50 °C1010.30 hPa93.00 %4.50 °C 
02:29:005.50 °C1010.40 hPa93.00 %4.50 °C 
02:14:005.50 °C1010.30 hPa93.00 %4.68 km/hOSO5.50 °C4.50 °C 
01:59:005.40 °C1010.50 hPa93.00 %4.40 °C 
01:44:005.30 °C1010.50 hPa93.00 %4.30 °C 
01:29:005.40 °C1010.50 hPa93.00 %4.40 °C 
01:14:005.50 °C1010.80 hPa93.00 %4.50 °C 
00:59:005.60 °C1010.70 hPa93.00 %4.60 °C 
00:44:005.80 °C1010.60 hPa93.00 %4.80 °C 
00:29:005.70 °C1010.70 hPa93.00 %4.70 °C 
00:14:005.80 °C1010.60 hPa93.00 %4.80 °C 

Permanenter Link zu dieser Seite: Wetter im Erzgebirge am 29.10.2015
Performance-Info: Die Erstellung der Seite / Statistik(en) / Tabelle(n) erforderte 5 Datenbankserver-Abfrage(n) und dauerte 97 Millisekunden. (Dieser Messwert ist von der Gesamt-Auslastung des Servers abhängig.)
Erzgebirge - Wetter | Erzgebirge - Wetter (Mobilgeräte) | Komplette Klimadatenbank